Time;durP1;ratioP1;P1;durP2;ratioP2;P2;SDS_P1;SDS_P2;PMS_P1;PMS_P2;Temp;Humidity;BMP_temperature;BMP_pressure;BME280_temperature;BME280_humidity;BME280_pressure;Samples;Min_cycle;Max_cycle;Signal;HPM_P1;HPM_P2
2022/03/14 01:11:29;;;;;;;;;;;8.10;99.90;;;;;;5737887;24;19950;-79
2022/03/14 01:13:55;;;;;;;;;;;8.10;99.90;;;;;;4790422;29;19921;-78
2022/03/14 01:16:20;;;;;;;;;;;8.20;99.90;;;;;;4790042;29;20362;-78
2022/03/14 01:18:46;;;;;;;;;;;8.20;99.90;;;;;;4790786;29;19977;-78
2022/03/14 01:21:12;;;;;;;;;;;8.30;99.90;;;;;;4790437;29;20007;-78
2022/03/14 01:23:37;;;;;;;;;;;8.30;99.90;;;;;;4790857;29;19925;-78
2022/03/14 07:47:51;;;;;;;;;;;8.70;99.90;;;;;;5489174;24;19929;-80
2022/03/14 07:50:18;;;;;;;;;;;8.70;99.90;;;;;;4810097;29;20314;-80
2022/03/14 07:52:43;;;;;;;;;;;8.70;99.90;;;;;;4811080;29;20405;-80
2022/03/14 07:55:09;;;;;;;;;;;8.70;99.90;;;;;;4809486;29;19921;-80
2022/03/14 07:57:35;;;;;;;;;;;8.70;99.90;;;;;;4811890;29;19924;-81
2022/03/14 08:00:01;;;;;;;;;;;8.70;99.90;;;;;;4832027;24;19920;-84
2022/03/14 08:02:27;;;;;;;;;;;8.70;99.90;;;;;;4806084;29;20300;-84
2022/03/14 08:04:52;;;;;;;;;;;8.80;99.90;;;;;;4835296;29;20115;-84
2022/03/14 08:07:20;;;;;;;;;;;8.80;99.90;;;;;;4793468;30;19926;-83
2022/03/14 08:09:47;;;;;;;;;;;8.80;99.90;;;;;;4808426;29;19913;-83
2022/03/14 08:12:12;;;;;;;;;;;8.80;99.90;;;;;;4808441;29;19990;-83
2022/03/14 08:14:38;;;;;;;;;;;8.80;99.90;;;;;;4811554;29;19928;-82
2022/03/14 08:17:04;;;;;;;;;;;8.90;99.90;;;;;;4795950;29;19925;-82
2022/03/14 08:19:29;;;;;;;;;;;8.80;99.90;;;;;;4803389;29;19928;-82
2022/03/14 08:21:56;;;;;;;;;;;8.90;99.90;;;;;;4796148;29;19927;-82
2022/03/14 08:24:22;;;;;;;;;;;8.90;99.90;;;;;;4822382;29;20092;-82
2022/03/14 08:26:48;;;;;;;;;;;8.90;99.90;;;;;;4831271;29;19985;-82
2022/03/14 08:29:14;;;;;;;;;;;8.90;99.90;;;;;;4831448;29;20037;-83
2022/03/14 08:31:39;;;;;;;;;;;8.90;99.90;;;;;;4831579;29;20376;-82
2022/03/14 08:34:06;;;;;;;;;;;9.00;99.90;;;;;;4830465;29;19920;-83
2022/03/14 08:36:32;;;;;;;;;;;9.00;99.90;;;;;;4829214;29;20322;-82
2022/03/14 08:38:57;;;;;;;;;;;9.00;99.90;;;;;;4813596;29;19974;-83
2022/03/14 08:41:23;;;;;;;;;;;9.00;99.90;;;;;;4813317;29;19920;-82
2022/03/14 08:43:48;;;;;;;;;;;9.10;99.90;;;;;;4813184;29;19928;-83
2022/03/14 08:46:17;;;;;;;;;;;9.10;99.90;;;;;;4813367;29;20261;-82
2022/03/14 08:48:42;;;;;;;;;;;9.20;99.90;;;;;;4798658;29;19920;-83
2022/03/14 08:51:08;;;;;;;;;;;9.10;99.90;;;;;;4827572;29;19925;-83
2022/03/14 08:53:34;;;;;;;;;;;9.20;99.90;;;;;;4795333;29;19972;-82
2022/03/14 08:56:03;;;;;;;;;;;9.20;99.90;;;;;;4795861;29;20374;-82
2022/03/14 08:58:29;;;;;;;;;;;9.20;99.90;;;;;;4795684;29;19924;-83
2022/03/14 09:00:55;;;;;;;;;;;9.20;99.90;;;;;;4796205;29;19921;-82
2022/03/14 09:03:21;;;;;;;;;;;9.30;99.90;;;;;;4780349;29;19921;-82
2022/03/14 09:05:46;;;;;;;;;;;9.30;99.90;;;;;;4795621;29;19921;-82
2022/03/14 09:08:12;;;;;;;;;;;9.30;99.90;;;;;;4795075;29;20403;-82
2022/03/14 09:10:39;;;;;;;;;;;9.30;99.90;;;;;;4794407;29;19974;-82
2022/03/14 09:13:04;;;;;;;;;;;9.30;99.90;;;;;;4794670;29;20035;-82
2022/03/14 09:15:30;;;;;;;;;;;9.40;99.90;;;;;;4794766;29;19978;-82
2022/03/14 09:17:57;;;;;;;;;;;9.40;99.90;;;;;;4794001;29;19921;-82
2022/03/14 09:20:24;;;;;;;;;;;9.40;99.90;;;;;;4793357;29;19990;-82
2022/03/14 09:22:50;;;;;;;;;;;9.30;99.90;;;;;;4792963;29;19929;-82
2022/03/14 09:25:16;;;;;;;;;;;9.30;99.90;;;;;;4794252;29;20001;-82
2022/03/14 09:27:42;;;;;;;;;;;9.40;99.90;;;;;;4793608;29;19921;-82
2022/03/14 09:30:09;;;;;;;;;;;9.30;99.90;;;;;;4793911;29;19925;-82
2022/03/14 09:32:34;;;;;;;;;;;9.30;99.90;;;;;;4794445;29;19921;-82
2022/03/14 09:35:00;;;;;;;;;;;9.40;99.90;;;;;;4803936;29;19921;-82
2022/03/14 09:37:26;;;;;;;;;;;9.40;99.90;;;;;;4797227;29;19974;-82
2022/03/14 09:39:52;;;;;;;;;;;9.40;99.90;;;;;;4797525;29;19946;-82
2022/03/14 09:42:18;;;;;;;;;;;9.50;99.90;;;;;;4813136;29;19921;-82
2022/03/14 09:44:46;;;;;;;;;;;9.50;99.90;;;;;;4813033;29;19921;-83
2022/03/14 09:47:12;;;;;;;;;;;9.50;99.90;;;;;;4827788;29;19928;-82
2022/03/14 09:49:39;;;;;;;;;;;9.60;99.90;;;;;;4812829;29;19948;-83
2022/03/14 09:52:05;;;;;;;;;;;9.70;99.90;;;;;;4814401;29;20015;-82
2022/03/14 09:54:31;;;;;;;;;;;9.70;99.90;;;;;;4813060;29;19999;-82
2022/03/14 09:56:58;;;;;;;;;;;9.70;99.90;;;;;;4811511;29;19978;-82
2022/03/14 09:59:24;;;;;;;;;;;9.70;99.90;;;;;;4811715;29;19931;-83
2022/03/14 10:01:50;;;;;;;;;;;9.70;99.90;;;;;;4811751;29;19925;-83
2022/03/14 10:04:16;;;;;;;;;;;9.60;99.90;;;;;;4812735;29;19943;-83
2022/03/14 10:06:41;;;;;;;;;;;9.60;99.90;;;;;;4812179;29;19927;-83
2022/03/14 10:09:07;;;;;;;;;;;9.50;99.90;;;;;;4810288;29;19920;-82
2022/03/14 10:11:32;;;;;;;;;;;9.50;99.90;;;;;;4811304;29;19931;-83
2022/03/14 10:13:58;;;;;;;;;;;9.50;99.90;;;;;;4811367;29;20423;-82
2022/03/14 10:16:25;;;;;;;;;;;9.50;99.90;;;;;;4812359;29;19932;-82
2022/03/14 10:18:55;;;;;;;;;;;9.50;99.90;;;;;;4814228;29;19921;-83
2022/03/14 10:21:37;;;;;;;;;;;9.50;99.90;;;;;;4829113;29;19921;-83
2022/03/14 10:24:07;;;;;;;;;;;9.50;99.90;;;;;;4812805;29;19952;-82
2022/03/14 10:26:33;;;;;;;;;;;9.50;99.90;;;;;;4828420;29;19929;-83
2022/03/14 10:29:00;;;;;;;;;;;9.40;99.90;;;;;;4813414;29;19929;-83
2022/03/14 10:31:26;;;;;;;;;;;9.40;99.90;;;;;;4827495;29;19936;-83
2022/03/14 10:33:59;;;;;;;;;;;9.40;99.90;;;;;;4812417;29;19920;-83
2022/03/14 10:36:42;;;;;;;;;;;9.30;99.90;;;;;;4812888;29;19977;-82
2022/03/14 10:39:18;;;;;;;;;;;9.30;99.90;;;;;;4812869;29;19920;-83
2022/03/14 10:41:45;;;;;;;;;;;9.20;99.90;;;;;;4811488;29;19921;-83
2022/03/14 10:44:21;;;;;;;;;;;9.10;99.90;;;;;;4830193;29;19963;-84
2022/03/14 10:46:46;;;;;;;;;;;9.00;99.90;;;;;;4810897;29;19921;-81
2022/03/14 10:49:12;;;;;;;;;;;9.00;99.90;;;;;;4811686;29;19940;-81
2022/03/14 10:52:06;;;;;;;;;;;8.90;99.90;;;;;;4827957;29;19931;-81
2022/03/14 10:54:36;;;;;;;;;;;8.90;99.90;;;;;;4798158;29;19927;-81
2022/03/14 10:57:16;;;;;;;;;;;8.80;99.90;;;;;;4810880;29;20304;-83
2022/03/14 10:59:43;;;;;;;;;;;8.90;99.90;;;;;;4813081;29;19927;-83
2022/03/14 11:02:14;;;;;;;;;;;8.90;99.90;;;;;;4784899;29;19929;-83
2022/03/14 11:04:49;;;;;;;;;;;8.90;99.90;;;;;;4792687;29;19921;-82
2022/03/14 11:07:16;;;;;;;;;;;9.00;99.90;;;;;;4792916;29;20373;-83
2022/03/14 11:09:44;;;;;;;;;;;9.00;99.90;;;;;;4791471;29;20369;-82
2022/03/14 11:12:11;;;;;;;;;;;9.10;99.90;;;;;;4792786;29;19925;-83
2022/03/14 11:14:36;;;;;;;;;;;9.10;99.90;;;;;;4795864;29;19979;-81
2022/03/14 11:17:28;;;;;;;;;;;9.20;99.90;;;;;;4794775;29;19921;-80
2022/03/14 11:19:55;;;;;;;;;;;9.20;99.90;;;;;;4809398;29;20332;-80
2022/03/14 11:22:21;;;;;;;;;;;9.30;99.90;;;;;;4812145;29;19969;-80
2022/03/14 11:24:48;;;;;;;;;;;9.30;99.90;;;;;;4812062;29;19921;-80
2022/03/14 11:27:17;;;;;;;;;;;9.40;99.90;;;;;;4812079;29;20000;-82
2022/03/14 11:29:43;;;;;;;;;;;9.40;99.90;;;;;;4811764;29;20015;-80
2022/03/14 11:32:09;;;;;;;;;;;9.50;99.90;;;;;;4812100;29;20406;-79
2022/03/14 11:34:35;;;;;;;;;;;9.60;99.90;;;;;;4811282;29;20376;-80
2022/03/14 11:37:01;;;;;;;;;;;9.70;99.90;;;;;;4810158;29;19920;-79
2022/03/14 11:39:27;;;;;;;;;;;9.70;99.90;;;;;;4812143;29;19968;-80
2022/03/14 11:41:54;;;;;;;;;;;9.70;99.90;;;;;;4816593;29;19925;-79
2022/03/14 11:44:20;;;;;;;;;;;9.80;99.90;;;;;;4824318;29;19932;-79
2022/03/14 11:46:46;;;;;;;;;;;9.80;99.90;;;;;;4840599;29;19921;-79
2022/03/14 11:49:15;;;;;;;;;;;9.80;99.90;;;;;;4824632;29;19927;-79
2022/03/14 11:51:41;;;;;;;;;;;9.80;99.90;;;;;;4811649;29;19921;-79
2022/03/14 11:54:11;;;;;;;;;;;9.90;99.90;;;;;;4806316;29;19921;-79
2022/03/14 11:56:38;;;;;;;;;;;9.90;99.90;;;;;;4805956;29;20392;-79
2022/03/14 11:59:08;;;;;;;;;;;10.00;99.90;;;;;;4810043;29;19921;-79
2022/03/14 12:01:34;;;;;;;;;;;10.00;99.90;;;;;;4840037;29;19920;-79
2022/03/14 12:04:03;;;;;;;;;;;9.90;99.90;;;;;;4824826;29;19986;-79
2022/03/14 12:06:47;;;;;;;;;;;10.00;99.90;;;;;;4809467;29;19950;-79
2022/03/14 12:09:27;;;;;;;;;;;10.00;99.90;;;;;;4824355;29;19929;-79
2022/03/14 12:11:53;;;;;;;;;;;9.90;99.90;;;;;;4788937;29;19970;-79
2022/03/14 12:14:37;;;;;;;;;;;9.90;99.90;;;;;;4797507;29;19929;-79
2022/03/14 12:17:15;;;;;;;;;;;10.00;99.90;;;;;;4796392;29;19921;-80
2022/03/14 12:19:46;;;;;;;;;;;10.00;99.90;;;;;;4781738;29;19925;-81
2022/03/14 12:22:13;;;;;;;;;;;9.90;99.90;;;;;;4796638;29;19921;-80
2022/03/14 12:24:39;;;;;;;;;;;10.00;99.90;;;;;;4787584;29;19931;-80
2022/03/14 12:27:13;;;;;;;;;;;10.00;99.90;;;;;;4797510;29;19960;-80
2022/03/14 12:29:40;;;;;;;;;;;10.00;99.90;;;;;;4794897;29;19929;-79
2022/03/14 12:32:24;;;;;;;;;;;10.00;99.90;;;;;;4779204;29;19921;-80
2022/03/14 12:35:05;;;;;;;;;;;10.10;99.90;;;;;;4793966;29;19921;-80
2022/03/14 12:37:36;;;;;;;;;;;10.10;99.90;;;;;;4794189;29;20081;-81
2022/03/14 12:40:03;;;;;;;;;;;10.10;99.90;;;;;;4808672;29;20377;-81
2022/03/14 12:42:36;;;;;;;;;;;10.10;99.90;;;;;;4793940;29;20003;-81
2022/03/14 12:45:31;;;;;;;;;;;10.10;99.90;;;;;;4806075;29;19928;-80
2022/03/14 12:48:06;;;;;;;;;;;10.00;99.90;;;;;;4791842;29;19921;-79
2022/03/14 12:50:45;;;;;;;;;;;10.00;99.90;;;;;;4792668;29;19932;-80
2022/03/14 12:53:17;;;;;;;;;;;10.00;99.90;;;;;;4779026;29;20376;-80
2022/03/14 12:55:44;;;;;;;;;;;10.10;99.90;;;;;;4793864;29;20031;-80
2022/03/14 12:58:13;;;;;;;;;;;10.10;99.90;;;;;;4794943;29;19921;-79
2022/03/14 13:00:38;;;;;;;;;;;10.20;99.90;;;;;;4801674;29;19933;-81
2022/03/14 13:03:04;;;;;;;;;;;10.30;99.90;;;;;;4812709;29;19987;-81
2022/03/14 13:05:29;;;;;;;;;;;10.40;99.90;;;;;;4838126;29;19946;-81
2022/03/14 13:08:04;;;;;;;;;;;10.50;99.90;;;;;;4828739;29;19920;-80
2022/03/14 13:10:39;;;;;;;;;;;10.60;99.90;;;;;;4828727;29;19990;-80
2022/03/14 13:13:05;;;;;;;;;;;10.80;99.90;;;;;;4843519;29;19920;-80
2022/03/14 13:15:31;;;;;;;;;;;10.80;99.90;;;;;;4813396;29;19921;-81
2022/03/14 13:17:56;;;;;;;;;;;10.90;99.90;;;;;;4821289;29;19921;-80
2022/03/14 13:20:22;;;;;;;;;;;10.90;99.90;;;;;;4808565;29;20297;-79
2022/03/14 13:22:47;;;;;;;;;;;10.90;99.90;;;;;;4796960;29;19928;-78
2022/03/14 13:25:27;;;;;;;;;;;10.90;99.90;;;;;;4781317;29;19921;-78
2022/03/14 13:27:53;;;;;;;;;;;10.90;99.90;;;;;;4795068;29;19960;-78
2022/03/14 13:30:19;;;;;;;;;;;11.00;99.90;;;;;;4795771;29;20320;-78
2022/03/14 13:32:44;;;;;;;;;;;11.10;99.90;;;;;;4779324;29;20007;-78
2022/03/14 13:35:11;;;;;;;;;;;11.20;99.90;;;;;;4795435;29;19950;-78
2022/03/14 13:37:43;;;;;;;;;;;11.20;99.90;;;;;;4794645;29;19921;-78
2022/03/14 13:40:18;;;;;;;;;;;11.40;99.90;;;;;;4794643;29;19921;-82
2022/03/14 13:42:45;;;;;;;;;;;11.50;99.90;;;;;;4801715;29;20396;-81
2022/03/14 13:45:10;;;;;;;;;;;11.60;99.90;;;;;;4830297;29;19921;-81
2022/03/14 13:47:36;;;;;;;;;;;11.70;99.90;;;;;;4812777;29;20074;-78
2022/03/14 13:50:02;;;;;;;;;;;11.70;99.90;;;;;;4809704;29;19924;-79
2022/03/14 13:52:28;;;;;;;;;;;11.80;99.90;;;;;;4808463;29;19927;-78
2022/03/14 13:54:53;;;;;;;;;;;11.80;99.90;;;;;;4825062;29;19921;-78
2022/03/14 13:57:22;;;;;;;;;;;11.90;99.90;;;;;;4809120;29;19925;-78
2022/03/14 13:59:49;;;;;;;;;;;12.00;99.90;;;;;;4809544;29;19921;-78
2022/03/14 14:02:15;;;;;;;;;;;12.30;99.90;;;;;;4836157;24;19992;-78
2022/03/14 14:04:47;;;;;;;;;;;12.60;99.90;;;;;;4819504;29;19928;-78
2022/03/14 14:07:23;;;;;;;;;;;12.90;99.90;;;;;;4804614;29;19920;-78
2022/03/14 14:09:50;;;;;;;;;;;13.00;99.90;;;;;;4805085;29;19974;-78
2022/03/14 14:12:15;;;;;;;;;;;13.00;99.90;;;;;;4804970;29;19932;-78
2022/03/14 14:14:46;;;;;;;;;;;12.80;99.90;;;;;;4801000;29;19921;-79
2022/03/14 14:17:13;;;;;;;;;;;12.80;99.90;;;;;;4802255;29;19989;-78
2022/03/14 14:19:58;;;;;;;;;;;12.80;99.90;;;;;;4801760;29;19927;-79
2022/03/14 14:22:28;;;;;;;;;;;12.90;99.90;;;;;;4799387;29;19921;-78
2022/03/14 14:24:54;;;;;;;;;;;13.00;99.90;;;;;;4800823;29;19984;-78
2022/03/14 14:27:26;;;;;;;;;;;13.10;99.90;;;;;;4800508;29;19944;-79
2022/03/14 14:29:59;;;;;;;;;;;13.10;99.90;;;;;;4801947;29;19992;-79
2022/03/14 14:32:24;;;;;;;;;;;13.00;99.90;;;;;;4800738;29;19925;-78
2022/03/14 14:34:50;;;;;;;;;;;12.90;99.90;;;;;;4801409;29;19921;-79
2022/03/14 14:37:16;;;;;;;;;;;12.80;99.90;;;;;;4801990;29;19925;-79
2022/03/14 14:39:42;;;;;;;;;;;12.70;99.90;;;;;;4802187;29;19924;-78
2022/03/14 14:42:12;;;;;;;;;;;12.60;99.90;;;;;;4798950;29;19928;-79
2022/03/14 14:44:37;;;;;;;;;;;12.50;99.90;;;;;;4798722;29;19951;-79
2022/03/14 14:47:05;;;;;;;;;;;12.60;99.90;;;;;;4797177;30;19921;-79
2022/03/14 14:49:34;;;;;;;;;;;12.70;99.90;;;;;;4797050;30;19942;-79
2022/03/14 14:52:00;;;;;;;;;;;12.90;99.90;;;;;;4801213;29;19921;-79
2022/03/14 14:54:26;;;;;;;;;;;13.20;99.90;;;;;;4801210;29;19990;-79
2022/03/14 14:56:52;;;;;;;;;;;13.70;99.90;;;;;;4801116;29;19921;-79
2022/03/14 14:59:19;;;;;;;;;;;14.30;99.90;;;;;;4798205;29;19947;-80
2022/03/14 15:01:45;;;;;;;;;;;14.60;99.90;;;;;;4801773;29;19928;-79
2022/03/14 15:04:12;;;;;;;;;;;14.80;99.90;;;;;;4801208;29;20017;-79
2022/03/14 15:06:37;;;;;;;;;;;15.00;99.90;;;;;;4815609;29;20392;-79
2022/03/14 15:09:03;;;;;;;;;;;15.30;99.90;;;;;;4798922;29;19928;-79
2022/03/14 15:11:29;;;;;;;;;;;15.30;99.90;;;;;;4814799;29;19974;-80
2022/03/14 15:13:54;;;;;;;;;;;15.40;99.90;;;;;;4800699;29;19982;-80
2022/03/14 15:16:20;;;;;;;;;;;15.60;99.90;;;;;;4788476;29;19926;-81
2022/03/14 15:18:45;;;;;;;;;;;15.60;99.90;;;;;;4813583;29;19944;-81
2022/03/14 15:21:13;;;;;;;;;;;15.20;99.90;;;;;;4814398;29;20427;-79
2022/03/14 15:23:38;;;;;;;;;;;14.80;99.90;;;;;;4782025;29;19921;-79
2022/03/14 15:26:04;;;;;;;;;;;14.50;99.90;;;;;;4797438;29;19921;-79
2022/03/14 15:28:31;;;;;;;;;;;14.10;99.90;;;;;;4799542;29;19921;-80
2022/03/14 15:30:58;;;;;;;;;;;13.90;99.90;;;;;;4815580;29;19988;-80
2022/03/14 15:33:24;;;;;;;;;;;13.60;99.90;;;;;;4797526;29;19952;-77
2022/03/14 15:35:50;;;;;;;;;;;13.40;99.90;;;;;;4798326;29;19928;-77
2022/03/14 15:38:15;;;;;;;;;;;13.10;99.90;;;;;;4797562;29;19952;-77
2022/03/14 15:40:42;;;;;;;;;;;12.90;99.90;;;;;;4796860;29;19921;-77
2022/03/14 15:43:08;;;;;;;;;;;12.70;99.90;;;;;;4796443;29;19921;-77
2022/03/14 15:45:33;;;;;;;;;;;12.60;99.90;;;;;;4795572;29;19928;-77
2022/03/14 15:48:00;;;;;;;;;;;12.40;99.90;;;;;;4796703;29;20416;-77
2022/03/14 15:50:25;;;;;;;;;;;12.50;99.90;;;;;;4795888;29;19929;-78
2022/03/14 15:52:51;;;;;;;;;;;12.70;99.90;;;;;;4795868;29;19927;-77
2022/03/14 15:55:18;;;;;;;;;;;12.90;99.90;;;;;;4795960;29;20011;-77
2022/03/14 15:57:43;;;;;;;;;;;12.90;99.90;;;;;;4794697;29;19921;-77
2022/03/14 16:00:10;;;;;;;;;;;12.60;99.90;;;;;;4776796;29;20015;-76
2022/03/14 16:02:37;;;;;;;;;;;12.40;99.90;;;;;;4796830;29;19932;-79
2022/03/14 16:05:03;;;;;;;;;;;12.20;99.90;;;;;;4813017;29;19921;-79
2022/03/14 16:07:28;;;;;;;;;;;12.00;99.90;;;;;;4814181;29;19928;-78
2022/03/14 16:09:56;;;;;;;;;;;11.80;99.90;;;;;;4814520;29;19932;-79
2022/03/14 16:12:21;;;;;;;;;;;11.70;99.90;;;;;;4798672;29;19921;-80
2022/03/14 16:14:47;;;;;;;;;;;11.70;99.90;;;;;;4795878;29;19947;-80
2022/03/14 16:17:13;;;;;;;;;;;11.90;99.90;;;;;;4796873;29;20334;-81
2022/03/14 16:19:38;;;;;;;;;;;12.50;99.90;;;;;;4796816;29;20511;-81
2022/03/14 16:22:04;;;;;;;;;;;13.00;99.90;;;;;;4809999;29;19921;-81
2022/03/14 16:24:29;;;;;;;;;;;13.40;99.90;;;;;;4809625;29;19961;-79
2022/03/14 16:26:55;;;;;;;;;;;13.50;99.90;;;;;;4809858;29;19931;-80
2022/03/14 16:29:20;;;;;;;;;;;13.40;99.90;;;;;;4810786;29;19956;-80
2022/03/14 16:31:50;;;;;;;;;;;13.20;99.90;;;;;;4811896;29;20384;-79
2022/03/14 16:34:16;;;;;;;;;;;13.20;99.90;;;;;;4796777;29;19925;-79
2022/03/14 16:36:41;;;;;;;;;;;13.30;99.90;;;;;;4811558;29;19929;-80
2022/03/14 16:39:07;;;;;;;;;;;13.50;99.90;;;;;;4812564;29;19953;-81
2022/03/14 16:41:33;;;;;;;;;;;13.60;99.90;;;;;;4815725;29;19928;-80
2022/03/14 16:43:58;;;;;;;;;;;13.70;99.90;;;;;;4802559;29;19993;-80
2022/03/14 16:46:24;;;;;;;;;;;13.70;99.90;;;;;;4801155;29;19921;-79
2022/03/14 16:48:49;;;;;;;;;;;13.60;99.90;;;;;;4815466;29;19921;-80
2022/03/14 16:51:15;;;;;;;;;;;13.60;99.90;;;;;;4816031;29;19992;-79
2022/03/14 16:53:40;;;;;;;;;;;13.60;99.90;;;;;;4801516;29;19920;-79
2022/03/14 16:56:06;;;;;;;;;;;13.50;99.90;;;;;;4800589;29;19964;-79
2022/03/14 16:58:31;;;;;;;;;;;13.40;99.90;;;;;;4800832;29;19931;-79
2022/03/14 17:00:57;;;;;;;;;;;13.30;99.90;;;;;;4784564;29;19921;-77
2022/03/14 17:03:22;;;;;;;;;;;13.10;99.90;;;;;;4814314;29;19985;-79
2022/03/14 17:05:48;;;;;;;;;;;12.90;99.90;;;;;;4797739;29;19951;-78
2022/03/14 17:08:13;;;;;;;;;;;12.70;99.90;;;;;;4799235;29;19921;-78
2022/03/14 17:10:39;;;;;;;;;;;12.40;99.90;;;;;;4800321;29;19932;-77
2022/03/14 17:13:11;;;;;;;;;;;12.30;99.90;;;;;;4813984;29;20015;-78
2022/03/14 17:15:38;;;;;;;;;;;12.10;99.90;;;;;;4799427;29;19928;-77
2022/03/14 17:18:04;;;;;;;;;;;11.80;99.90;;;;;;4801521;29;19970;-77
2022/03/14 17:20:31;;;;;;;;;;;11.50;99.90;;;;;;4800175;29;19920;-77
2022/03/14 17:22:57;;;;;;;;;;;11.30;99.90;;;;;;4786184;29;19921;-77
2022/03/14 17:25:22;;;;;;;;;;;11.00;99.90;;;;;;4800333;29;19928;-77
2022/03/14 17:27:48;;;;;;;;;;;10.80;99.90;;;;;;4800142;29;20277;-77
2022/03/14 17:30:14;;;;;;;;;;;10.60;99.90;;;;;;4814393;29;19925;-77
2022/03/14 17:32:39;;;;;;;;;;;10.40;99.90;;;;;;4799612;29;19928;-77
2022/03/14 17:35:06;;;;;;;;;;;10.30;99.90;;;;;;4796605;30;19925;-77
2022/03/14 17:37:33;;;;;;;;;;;10.10;99.90;;;;;;4795853;30;20404;-77
2022/03/14 17:39:59;;;;;;;;;;;10.00;99.90;;;;;;4794792;29;19988;-77
2022/03/14 17:42:25;;;;;;;;;;;10.00;99.90;;;;;;4795195;30;19921;-77
2022/03/14 17:44:50;;;;;;;;;;;9.90;99.90;;;;;;4795046;29;19921;-77
2022/03/14 17:47:15;;;;;;;;;;;9.80;99.90;;;;;;4795779;30;19921;-77
2022/03/14 17:49:41;;;;;;;;;;;9.70;99.90;;;;;;4798088;29;19964;-77
2022/03/14 17:52:06;;;;;;;;;;;9.60;99.90;;;;;;4783351;29;19921;-77
2022/03/14 17:54:32;;;;;;;;;;;9.50;99.90;;;;;;4798947;29;19921;-77
2022/03/14 17:56:57;;;;;;;;;;;9.40;99.90;;;;;;4798939;29;20360;-77
2022/03/14 17:59:23;;;;;;;;;;;9.30;99.90;;;;;;4798321;29;19921;-77
2022/03/14 18:01:49;;;;;;;;;;;9.30;99.90;;;;;;4799160;29;19921;-78
2022/03/14 18:04:14;;;;;;;;;;;9.20;99.90;;;;;;4799756;29;20015;-77
2022/03/14 18:06:40;;;;;;;;;;;9.10;99.90;;;;;;4814150;29;20015;-76
2022/03/14 18:09:08;;;;;;;;;;;9.00;99.90;;;;;;4815203;29;19925;-77
2022/03/14 18:11:34;;;;;;;;;;;8.90;99.90;;;;;;4797039;29;19925;-77
2022/03/14 18:14:00;;;;;;;;;;;8.80;99.90;;;;;;4797732;29;20333;-77
2022/03/14 18:16:25;;;;;;;;;;;8.60;99.90;;;;;;4797039;29;19972;-77
2022/03/14 18:18:51;;;;;;;;;;;8.50;99.90;;;;;;4814742;29;19921;-77
2022/03/14 18:21:18;;;;;;;;;;;8.30;99.90;;;;;;4797467;29;19956;-77
2022/03/14 18:23:45;;;;;;;;;;;8.20;99.90;;;;;;4815052;29;19921;-77
2022/03/14 18:26:10;;;;;;;;;;;8.10;99.90;;;;;;4813825;29;19921;-76
2022/03/14 18:28:36;;;;;;;;;;;8.00;99.90;;;;;;4815501;29;19921;-77
2022/03/14 18:31:01;;;;;;;;;;;7.90;99.90;;;;;;4800423;29;19948;-77
2022/03/14 18:33:27;;;;;;;;;;;7.80;99.90;;;;;;4799956;29;20019;-76
2022/03/14 18:35:53;;;;;;;;;;;7.80;99.90;;;;;;4799041;29;19921;-76
2022/03/14 18:38:18;;;;;;;;;;;7.80;99.90;;;;;;4784200;29;19921;-77
2022/03/14 18:40:45;;;;;;;;;;;7.80;99.90;;;;;;4815550;29;20341;-77
2022/03/14 18:43:11;;;;;;;;;;;7.70;99.90;;;;;;4799088;29;19946;-78
2022/03/14 18:45:36;;;;;;;;;;;7.70;99.90;;;;;;4799612;29;19928;-77
2022/03/14 18:48:02;;;;;;;;;;;7.70;99.90;;;;;;4815698;29;19932;-77
2022/03/14 18:50:28;;;;;;;;;;;7.70;99.90;;;;;;4807662;29;19955;-78
2022/03/14 18:52:54;;;;;;;;;;;7.70;99.90;;;;;;4811356;29;19925;-78
2022/03/14 18:55:20;;;;;;;;;;;7.70;99.90;;;;;;4797100;29;19925;-77
2022/03/14 18:57:46;;;;;;;;;;;7.60;99.90;;;;;;4795529;29;19926;-77
2022/03/14 19:00:12;;;;;;;;;;;7.50;99.90;;;;;;4796956;29;20428;-77
2022/03/14 19:02:38;;;;;;;;;;;7.40;99.90;;;;;;4797774;29;20411;-77
2022/03/14 19:05:04;;;;;;;;;;;7.40;99.90;;;;;;4799662;29;19921;-77
2022/03/14 19:07:29;;;;;;;;;;;7.30;99.90;;;;;;4814476;29;19928;-78
2022/03/14 19:09:55;;;;;;;;;;;7.30;99.90;;;;;;4813634;29;19993;-77
2022/03/14 19:12:21;;;;;;;;;;;7.30;99.90;;;;;;4780367;29;20016;-77
2022/03/14 19:14:49;;;;;;;;;;;7.30;99.90;;;;;;4810615;29;19967;-78
2022/03/14 19:17:14;;;;;;;;;;;7.40;99.90;;;;;;4795836;29;19928;-80
2022/03/14 19:19:41;;;;;;;;;;;7.40;99.90;;;;;;4812542;29;19925;-78
2022/03/14 19:22:07;;;;;;;;;;;7.40;99.90;;;;;;4793426;29;19920;-78
2022/03/14 19:24:33;;;;;;;;;;;7.30;99.90;;;;;;4796796;29;19947;-78
2022/03/14 19:26:59;;;;;;;;;;;7.30;99.90;;;;;;4795777;29;20455;-79
2022/03/14 19:29:25;;;;;;;;;;;7.30;99.90;;;;;;4791359;29;19925;-78
2022/03/14 19:31:50;;;;;;;;;;;7.40;99.90;;;;;;4795754;29;19944;-78
2022/03/14 19:34:16;;;;;;;;;;;7.50;99.90;;;;;;4780946;29;19929;-78
2022/03/14 19:36:44;;;;;;;;;;;7.60;99.90;;;;;;4794843;29;19924;-77
2022/03/14 19:39:10;;;;;;;;;;;7.60;99.90;;;;;;4792508;30;19922;-78
2022/03/14 19:41:36;;;;;;;;;;;7.60;99.90;;;;;;4790428;29;19930;-78
2022/03/14 19:44:03;;;;;;;;;;;7.60;99.90;;;;;;4822072;29;19951;-78
2022/03/14 19:46:28;;;;;;;;;;;7.60;99.90;;;;;;4795849;29;19944;-78
2022/03/14 19:48:54;;;;;;;;;;;7.40;99.90;;;;;;4783182;29;20395;-78
2022/03/14 19:51:19;;;;;;;;;;;7.40;99.90;;;;;;4796386;29;19997;-79
2022/03/14 19:53:45;;;;;;;;;;;7.20;99.90;;;;;;4797414;29;19925;-78
2022/03/14 19:56:11;;;;;;;;;;;7.00;99.90;;;;;;4797020;29;19921;-77
2022/03/14 19:58:36;;;;;;;;;;;6.90;99.90;;;;;;4797839;29;19921;-78
2022/03/14 20:01:02;;;;;;;;;;;6.90;99.90;;;;;;4815046;24;19987;-82
2022/03/14 20:03:28;;;;;;;;;;;6.80;99.90;;;;;;4793005;29;19929;-83
2022/03/14 20:05:57;;;;;;;;;;;6.80;99.90;;;;;;4806622;29;19925;-83
2022/03/14 20:08:23;;;;;;;;;;;6.70;99.90;;;;;;4790498;29;19928;-83
2022/03/14 20:10:51;;;;;;;;;;;6.70;99.90;;;;;;4791143;29;19925;-83
2022/03/14 20:13:18;;;;;;;;;;;6.60;99.90;;;;;;4793536;29;19921;-83
2022/03/14 20:15:46;;;;;;;;;;;6.40;99.90;;;;;;4793265;29;20333;-83
2022/03/14 20:18:11;;;;;;;;;;;6.30;99.90;;;;;;4779154;29;19941;-83
2022/03/14 20:20:37;;;;;;;;;;;6.10;99.90;;;;;;4777476;30;19929;-84
2022/03/14 20:23:03;;;;;;;;;;;6.00;99.90;;;;;;4789950;30;19947;-82
2022/03/14 20:25:29;;;;;;;;;;;6.00;99.90;;;;;;4793028;30;19976;-83
2022/03/14 20:27:55;;;;;;;;;;;5.90;99.90;;;;;;4821636;29;19922;-83
2022/03/14 20:30:21;;;;;;;;;;;5.80;99.90;;;;;;4821262;29;19925;-83
2022/03/14 20:32:47;;;;;;;;;;;5.70;99.90;;;;;;4791660;29;20000;-84
2022/03/14 20:35:13;;;;;;;;;;;5.60;99.90;;;;;;4791621;30;19982;-83
2022/03/14 20:37:39;;;;;;;;;;;5.60;99.90;;;;;;4786729;30;20299;-83
2022/03/14 20:40:05;;;;;;;;;;;5.60;99.90;;;;;;4790343;29;19985;-83
2022/03/14 20:42:30;;;;;;;;;;;5.60;99.90;;;;;;4782114;29;19961;-83
2022/03/14 20:44:57;;;;;;;;;;;5.60;99.90;;;;;;4797083;29;20336;-83
2022/03/14 20:47:23;;;;;;;;;;;5.40;99.90;;;;;;4780618;29;20486;-83
2022/03/14 20:49:50;;;;;;;;;;;5.30;99.90;;;;;;4765794;30;19925;-83
2022/03/14 20:52:16;;;;;;;;;;;5.20;99.90;;;;;;4779097;30;19922;-83
2022/03/14 20:54:41;;;;;;;;;;;5.10;99.90;;;;;;4808756;29;19921;-83
2022/03/14 20:57:07;;;;;;;;;;;5.00;99.90;;;;;;4810513;29;19928;-83
2022/03/14 20:59:32;;;;;;;;;;;5.00;99.90;;;;;;4796075;29;19924;-83
2022/03/14 21:04:42;;;;;;;;;;;4.90;99.90;;;;;;4780312;29;19929;-83
2022/03/14 21:07:08;;;;;;;;;;;4.80;99.90;;;;;;4767917;29;19931;-83
2022/03/14 21:09:36;;;;;;;;;;;4.80;99.90;;;;;;4780423;29;19921;-83
2022/03/14 21:12:02;;;;;;;;;;;4.90;99.90;;;;;;4793244;29;19942;-83
2022/03/14 21:14:30;;;;;;;;;;;4.90;99.90;;;;;;4773584;29;19941;-84
2022/03/14 21:16:55;;;;;;;;;;;4.90;99.90;;;;;;4794330;29;19932;-83
2022/03/14 21:19:21;;;;;;;;;;;4.80;99.90;;;;;;4763282;30;19921;-83
2022/03/14 21:21:46;;;;;;;;;;;4.70;99.90;;;;;;4776669;30;20329;-83
2022/03/14 21:24:13;;;;;;;;;;;4.70;99.90;;;;;;4780998;29;19921;-83
2022/03/14 21:26:39;;;;;;;;;;;4.70;99.90;;;;;;4775889;29;19961;-83
2022/03/14 21:29:05;;;;;;;;;;;4.60;99.90;;;;;;4777266;30;19921;-83
2022/03/14 21:31:31;;;;;;;;;;;4.60;99.90;;;;;;4792864;30;19925;-83
2022/03/14 21:34:00;;;;;;;;;;;4.50;99.90;;;;;;4791435;30;19928;-84
2022/03/14 21:36:25;;;;;;;;;;;4.50;99.90;;;;;;4806204;29;20004;-83
2022/03/14 21:38:51;;;;;;;;;;;4.40;99.90;;;;;;4785885;29;19984;-83
2022/03/14 21:41:19;;;;;;;;;;;4.40;99.90;;;;;;4776869;30;19927;-83
2022/03/14 21:43:45;;;;;;;;;;;4.40;99.90;;;;;;4778535;30;20064;-82
2022/03/14 21:46:12;;;;;;;;;;;4.30;99.90;;;;;;4795378;30;20199;-83
2022/03/14 21:48:37;;;;;;;;;;;4.20;99.90;;;;;;4781971;30;19921;-82
2022/03/14 21:51:03;;;;;;;;;;;4.20;99.90;;;;;;4788772;29;19932;-81
2022/03/14 21:53:29;;;;;;;;;;;4.10;99.90;;;;;;4800179;29;19921;-81
2022/03/14 21:55:54;;;;;;;;;;;4.10;99.90;;;;;;4811711;29;20351;-80
2022/03/14 21:58:20;;;;;;;;;;;4.00;99.90;;;;;;4800382;29;19928;-81
2022/03/14 22:00:46;;;;;;;;;;;4.00;99.90;;;;;;4798402;29;19925;-81